Time;durP1;ratioP1;P1;durP2;ratioP2;P2;SDS_P1;SDS_P2;PMS_P1;PMS_P2;Temp;Humidity;BMP_temperature;BMP_pressure;BME280_temperature;BME280_humidity;BME280_pressure;Samples;Min_cycle;Max_cycle;Signal;HPM_P1;HPM_P2
2023/05/17 00:02:16;;;;;;;;;0.50;0.50;;;;;20.03;40.50;102001.41;4979398;28;45384;-55
2023/05/17 00:04:41;;;;;;;;;1.00;1.00;;;;;20.04;40.43;102008.38;4979900;28;45217;-53
2023/05/17 00:07:06;;;;;;;;;0.00;0.00;;;;;20.03;40.60;102005.81;4979313;28;46169;-52
2023/05/17 00:09:32;;;;;;;;;1.00;1.00;;;;;20.04;40.42;102010.19;4978516;28;65831;-50
2023/05/17 00:11:57;;;;;;;;;1.00;1.00;;;;;20.01;40.61;102000.59;4979123;28;45175;-53
2023/05/17 00:14:22;;;;;;;;;2.00;1.00;;;;;20.03;40.30;102006.66;4979194;28;46314;-54
2023/05/17 00:16:48;;;;;;;;;2.00;1.25;;;;;20.03;40.73;102003.19;4978598;28;61044;-49
2023/05/17 00:19:13;;;;;;;;;1.00;1.00;;;;;20.03;40.89;102011.94;4979177;28;45170;-50
2023/05/17 00:21:38;;;;;;;;;1.00;1.00;;;;;20.03;40.63;102005.81;4978377;28;64896;-45
2023/05/17 00:24:04;;;;;;;;;0.00;0.00;;;;;20.01;40.31;102005.00;4979047;28;45602;-45
2023/05/17 00:26:29;;;;;;;;;1.25;1.00;;;;;20.03;40.40;102003.19;4994111;28;48008;-45
2023/05/17 00:28:54;;;;;;;;;0.75;0.75;;;;;20.00;40.38;101998.91;4978927;28;45359;-45
2023/05/17 00:31:20;;;;;;;;;1.00;1.00;;;;;20.02;40.57;102002.31;4993738;28;56680;-45
2023/05/17 00:33:46;;;;;;;;;1.00;1.00;;;;;19.99;40.72;101996.31;4978422;28;54571;-47
2023/05/17 00:36:11;;;;;;;;;1.50;1.50;;;;;20.01;40.69;102003.22;4979077;28;46482;-45
2023/05/17 00:38:37;;;;;;;;;1.25;0.00;;;;;20.02;40.76;102012.84;4979047;28;45337;-48
2023/05/17 00:41:02;;;;;;;;;2.00;1.00;;;;;20.01;40.49;102002.38;4977893;28;62031;-45
2023/05/17 00:43:27;;;;;;;;;1.00;1.00;;;;;20.01;40.67;102008.47;4979014;28;45414;-45
2023/05/17 00:45:53;;;;;;;;;1.00;1.00;;;;;20.00;40.44;102006.78;4978419;28;45420;-45
2023/05/17 00:48:19;;;;;;;;;2.00;1.00;;;;;20.01;40.37;102011.13;4978706;28;45296;-46
2023/05/17 00:50:46;;;;;;;;;1.00;1.00;;;;;20.01;40.38;102005.00;4978792;28;45304;-49
2023/05/17 00:53:15;;;;;;;;;1.00;1.00;;;;;20.00;40.73;102006.78;4978860;28;45524;-55
2023/05/17 00:55:44;;;;;;;;;0.50;0.50;;;;;20.00;40.23;102013.81;4977987;28;47049;-57
2023/05/17 00:58:10;;;;;;;;;1.00;1.00;;;;;20.00;40.72;102001.53;4978418;28;45408;-47
2023/05/17 01:00:36;;;;;;;;;2.00;2.00;;;;;20.00;40.33;102003.28;4978708;28;45450;-55
2023/05/17 01:03:02;;;;;;;;;1.00;1.00;;;;;20.00;40.95;102001.53;4978743;28;45492;-46
2023/05/17 01:05:28;;;;;;;;;2.50;1.00;;;;;19.99;40.78;102005.06;4977887;28;45705;-45
2023/05/17 01:07:53;;;;;;;;;1.25;1.25;;;;;19.99;40.77;102005.06;4977093;28;45809;-45
2023/05/17 01:10:19;;;;;;;;;1.00;1.00;;;;;19.98;40.49;101998.09;4978856;28;45460;-46
2023/05/17 01:13:06;;;;;;;;;1.00;1.00;;;;;20.00;40.35;102005.91;4978620;28;45578;-46
2023/05/17 01:15:34;;;;;;;;;2.00;2.00;;;;;19.99;40.39;101998.94;4978102;28;45368;-45
2023/05/17 01:18:11;;;;;;;;;1.00;1.00;;;;;19.98;40.54;101987.56;4978294;28;45325;-45
2023/05/17 01:20:40;;;;;;;;;3.00;2.00;;;;;19.98;40.82;101998.09;4977915;28;45329;-45
2023/05/17 01:23:40;;;;;;;;;3.00;1.00;;;;;19.99;40.87;102009.47;4977705;28;46040;-46
2023/05/17 01:26:21;;;;;;;;;1.00;1.00;;;;;19.99;40.89;102001.56;4978147;28;46245;-48
2023/05/17 01:28:52;;;;;;;;;1.00;1.00;;;;;19.98;40.93;101994.56;4978480;28;45423;-45
2023/05/17 01:31:19;;;;;;;;;1.00;1.00;;;;;19.98;40.67;101992.81;4978242;28;45194;-49
2023/05/17 01:33:44;;;;;;;;;1.00;1.00;;;;;19.97;40.70;101996.38;4978136;28;45392;-46
2023/05/17 01:36:09;;;;;;;;;0.75;0.75;;;;;19.97;40.53;101996.38;4977638;28;46606;-47
2023/05/17 01:38:35;;;;;;;;;3.00;1.00;;;;;19.97;40.60;101996.38;4976606;28;63303;-49
2023/05/17 01:41:06;;;;;;;;;0.00;0.00;;;;;19.94;40.49;101993.84;4977983;28;45305;-45
2023/05/17 01:43:46;;;;;;;;;0.50;0.50;;;;;19.97;40.35;101995.50;4978073;28;45449;-47
2023/05/17 01:46:17;;;;;;;;;1.50;1.50;;;;;19.96;40.47;101999.03;4977351;28;46156;-46
2023/05/17 01:49:01;;;;;;;;;1.50;1.50;;;;;19.96;40.60;101993.75;4977524;28;45547;-46
2023/05/17 01:51:32;;;;;;;;;1.50;1.50;;;;;19.96;40.60;101989.38;4977834;28;45340;-45
2023/05/17 01:54:04;;;;;;;;;1.00;1.00;;;;;19.97;40.38;101999.00;4977830;28;45476;-44
2023/05/17 01:56:34;;;;;;;;;3.50;1.00;;;;;19.97;40.34;101999.00;4977415;28;46188;-46
2023/05/17 01:59:03;;;;;;;;;1.00;1.00;;;;;19.95;40.67;101995.56;4977619;28;45762;-49
2023/05/17 02:01:30;;;;;;;;;1.00;1.00;;;;;19.95;40.37;101994.72;4976526;28;45510;-44
2023/05/17 02:03:56;;;;;;;;;1.75;1.75;;;;;19.96;40.71;101999.91;4977747;28;45344;-45
2023/05/17 02:06:21;;;;;;;;;1.00;1.00;;;;;19.97;40.81;102000.75;4977589;28;46020;-46
2023/05/17 02:08:47;;;;;;;;;1.00;1.00;;;;;19.94;40.82;101985.94;4977412;28;45453;-44
2023/05/17 02:11:12;;;;;;;;;1.25;1.00;;;;;19.95;40.89;101985.03;4977042;28;45323;-44
2023/05/17 02:13:37;;;;;;;;;2.00;2.00;;;;;19.95;40.93;101992.91;4977993;28;45468;-46
2023/05/17 02:16:03;;;;;;;;;1.00;1.00;;;;;19.93;40.83;101984.22;4977162;28;45919;-45
2023/05/17 02:18:29;;;;;;;;;0.00;0.00;;;;;19.96;40.59;101993.75;4976572;28;45386;-44
2023/05/17 02:20:55;;;;;;;;;1.25;1.00;;;;;19.95;40.40;101998.19;4977425;28;45269;-47
2023/05/17 02:23:21;;;;;;;;;1.50;1.00;;;;;19.95;40.95;101992.91;4976640;28;45545;-48
2023/05/17 02:25:46;;;;;;;;;1.00;1.00;;;;;19.95;40.48;101986.81;4976986;28;46206;-55
2023/05/17 02:28:11;;;;;;;;;0.50;0.00;;;;;19.95;40.99;101995.56;4977214;28;45294;-48
2023/05/17 02:30:40;;;;;;;;;0.25;0.25;;;;;19.95;40.91;102000.81;4977311;28;45227;-46
2023/05/17 02:33:06;;;;;;;;;1.25;1.25;;;;;19.95;40.59;101992.91;4977179;28;45476;-53
2023/05/17 02:35:31;;;;;;;;;1.00;1.00;;;;;19.95;41.01;102000.81;4976789;28;45397;-53
2023/05/17 02:37:57;;;;;;;;;3.00;0.00;;;;;19.94;40.52;102004.34;4976862;28;45364;-47
2023/05/17 02:40:22;;;;;;;;;1.00;1.00;;;;;19.93;40.93;102002.63;4977424;28;45325;-48
2023/05/17 02:42:47;;;;;;;;;1.00;1.00;;;;;19.93;40.56;102010.53;4976497;28;52550;-51
2023/05/17 02:45:13;;;;;;;;;1.00;1.00;;;;;19.93;40.89;102015.78;4976814;28;46095;-55
2023/05/17 02:47:38;;;;;;;;;1.00;1.00;;;;;19.91;40.59;102002.69;4976331;28;62294;-51
2023/05/17 02:50:04;;;;;;;;;3.00;1.00;;;;;19.93;40.85;102014.03;4977244;28;45382;-53
2023/05/17 02:52:29;;;;;;;;;1.00;1.00;;;;;19.91;40.73;102007.97;4991857;28;45294;-48
2023/05/17 02:54:54;;;;;;;;;1.00;1.00;;;;;19.94;40.46;102007.00;4977328;28;45354;-52
2023/05/17 02:57:20;;;;;;;;;1.00;1.00;;;;;19.92;40.86;102009.69;4976909;28;45265;-55
2023/05/17 02:59:46;;;;;;;;;1.00;1.00;;;;;19.93;40.42;102007.91;4976955;28;45476;-53
2023/05/17 03:02:11;;;;;;;;;1.00;1.00;;;;;19.90;40.55;102011.50;4976782;28;45156;-46
2023/05/17 03:04:36;;;;;;;;;1.00;1.00;;;;;19.91;40.43;102013.22;4976368;28;46742;-45
2023/05/17 03:07:02;;;;;;;;;1.00;1.00;;;;;19.92;40.48;102016.69;4975625;28;45625;-46
2023/05/17 03:09:29;;;;;;;;;1.50;1.50;;;;;19.91;40.90;102017.59;4976903;28;45319;-44
2023/05/17 03:11:54;;;;;;;;;1.00;1.00;;;;;19.93;40.53;102021.06;4977291;28;45546;-45
2023/05/17 03:14:19;;;;;;;;;1.50;1.00;;;;;19.92;41.00;102016.69;4976354;28;46283;-45
2023/05/17 03:16:45;;;;;;;;;1.00;1.00;;;;;19.92;40.80;102019.31;4976506;28;45383;-44
2023/05/17 03:19:10;;;;;;;;;1.00;1.00;;;;;19.91;40.96;102017.59;4976371;28;45517;-45
2023/05/17 03:21:35;;;;;;;;;0.25;0.25;;;;;19.90;40.77;102016.75;4976192;28;53424;-44
2023/05/17 03:24:01;;;;;;;;;2.00;2.00;;;;;19.90;40.68;102011.50;4975177;28;47115;-44
2023/05/17 03:26:26;;;;;;;;;0.50;0.50;;;;;19.91;40.63;102017.59;4976822;28;45437;-49
2023/05/17 03:28:52;;;;;;;;;1.75;1.00;;;;;19.92;40.96;102024.59;4978102;28;45843;-50
2023/05/17 03:31:17;;;;;;;;;2.00;1.00;;;;;19.90;40.66;102019.38;4980253;28;45635;-46
2023/05/17 03:33:43;;;;;;;;;2.00;0.00;;;;;19.91;40.67;102020.25;4979255;28;45552;-44
2023/05/17 03:36:08;;;;;;;;;1.00;1.00;;;;;19.91;40.78;102017.59;4979901;28;45380;-45
2023/05/17 03:38:34;;;;;;;;;1.00;1.00;;;;;19.89;40.57;102017.66;4979872;28;45430;-45
2023/05/17 03:41:00;;;;;;;;;1.00;1.00;;;;;19.89;40.99;102019.47;4980052;28;45286;-44
2023/05/17 03:43:25;;;;;;;;;1.00;1.00;;;;;19.91;40.80;102017.59;4979430;28;45306;-44
2023/05/17 03:45:50;;;;;;;;;3.50;1.75;;;;;19.90;40.90;102019.38;4979331;28;45417;-45
2023/05/17 03:48:16;;;;;;;;;1.75;1.00;;;;;19.89;40.62;102019.47;4979554;28;47473;-44
2023/05/17 03:50:41;;;;;;;;;1.25;1.25;;;;;19.87;41.03;102016.00;4979350;28;50771;-44
2023/05/17 03:53:06;;;;;;;;;1.00;1.00;;;;;19.89;40.43;102022.09;4979252;28;45624;-44
2023/05/17 03:55:32;;;;;;;;;2.00;2.00;;;;;19.89;40.98;102024.72;4979181;28;45308;-49
2023/05/17 03:57:57;;;;;;;;;1.25;1.25;;;;;19.89;40.49;102025.56;4979685;28;45244;-46
2023/05/17 04:00:23;;;;;;;;;1.00;1.00;;;;;19.89;40.94;102022.94;4979678;28;45279;-48
2023/05/17 04:02:50;;;;;;;;;0.75;0.75;;;;;19.89;40.55;102032.63;4959895;28;45342;-45
2023/05/17 04:05:16;;;;;;;;;1.00;1.00;;;;;19.89;40.90;102037.88;4978994;28;45277;-47
2023/05/17 04:07:42;;;;;;;;;1.50;1.00;;;;;19.88;40.92;102041.41;4979216;28;45282;-44
2023/05/17 04:10:08;;;;;;;;;1.00;1.00;;;;;19.88;40.46;102039.63;4979521;28;45249;-45
2023/05/17 04:12:34;;;;;;;;;2.00;2.00;;;;;19.87;40.53;102042.31;4979047;28;47400;-44
2023/05/17 04:15:00;;;;;;;;;1.50;1.50;;;;;19.87;40.75;102047.59;4979285;28;45699;-52
2023/05/17 04:17:26;;;;;;;;;2.00;1.00;;;;;19.88;40.89;102055.41;4979520;28;45330;-44
2023/05/17 04:19:51;;;;;;;;;2.00;2.00;;;;;19.87;40.83;102058.09;4978444;28;45574;-44
2023/05/17 04:22:16;;;;;;;;;5.00;5.00;;;;;19.89;41.03;102061.56;4978216;28;58833;-44
2023/05/17 04:24:42;;;;;;;;;4.50;3.00;;;;;19.89;40.74;102061.56;4994015;28;45576;-43
2023/05/17 04:27:07;;;;;;;;;4.00;4.00;;;;;19.89;40.82;102067.66;4979108;28;45277;-43
2023/05/17 04:29:32;;;;;;;;;3.75;3.75;;;;;19.90;41.03;102068.50;4978803;28;45185;-44
2023/05/17 04:31:58;;;;;;;;;4.75;4.00;;;;;19.90;41.04;102073.78;4978771;28;57443;-43
2023/05/17 04:34:23;;;;;;;;;4.00;4.00;;;;;19.89;41.16;102079.97;4979057;28;45231;-43
2023/05/17 04:36:49;;;;;;;;;4.00;4.00;;;;;19.90;41.10;102074.66;4977789;28;45586;-44
2023/05/17 04:39:15;;;;;;;;;2.50;2.50;;;;;19.90;41.29;102079.91;4985478;28;45464;-43
2023/05/17 04:41:40;;;;;;;;;6.00;5.75;;;;;19.88;41.25;102075.63;4978028;28;46272;-46
2023/05/17 04:44:06;;;;;;;;;2.00;2.00;;;;;19.89;41.18;102083.44;4977894;28;68479;-45
2023/05/17 04:46:31;;;;;;;;;6.00;4.00;;;;;19.91;41.20;102089.53;4977321;28;45410;-43
2023/05/17 04:48:57;;;;;;;;;1.50;1.50;;;;;19.92;41.10;102093.00;4978499;28;45510;-43
2023/05/17 04:51:22;;;;;;;;;3.50;3.25;;;;;19.92;42.15;102093.00;4978364;28;53900;-43
2023/05/17 04:53:47;;;;;;;;;3.50;3.00;;;;;19.92;41.97;102093.00;4978296;28;51674;-48
2023/05/17 04:56:13;;;;;;;;;5.50;3.50;;;;;19.92;42.24;102095.63;4978746;28;45427;-47
2023/05/17 04:58:38;;;;;;;;;6.50;3.50;;;;;19.92;42.51;102095.63;4978225;28;50851;-46
2023/05/17 05:01:04;;;;;;;;;6.00;3.00;;;;;19.90;43.06;102095.69;4977085;28;47661;-48
2023/05/17 05:03:30;;;;;;;;;1.75;1.75;;;;;19.92;42.54;102099.16;4978762;28;45770;-48
2023/05/17 05:05:55;;;;;;;;;4.25;4.00;;;;;19.92;42.69;102098.28;4978593;28;45163;-48
2023/05/17 05:08:21;;;;;;;;;7.25;3.00;;;;;19.92;42.29;102096.50;4978735;28;45498;-45
2023/05/17 05:10:46;;;;;;;;;2.25;2.25;;;;;19.90;42.79;102103.59;4978178;28;45469;-47
2023/05/17 05:13:11;;;;;;;;;2.50;2.00;;;;;19.92;42.86;102109.66;4978167;28;45181;-49
2023/05/17 05:15:37;;;;;;;;;3.75;3.00;;;;;19.93;43.11;102111.41;4977520;28;45411;-49
2023/05/17 05:18:02;;;;;;;;;3.00;3.00;;;;;19.92;43.19;102119.31;4978506;28;45752;-56
2023/05/17 05:20:28;;;;;;;;;3.25;3.25;;;;;19.92;43.64;102114.94;4977359;28;46297;-52
2023/05/17 05:22:53;;;;;;;;;5.75;3.00;;;;;19.93;43.52;102119.28;4978537;28;45805;-46
2023/05/17 05:25:18;;;;;;;;;5.75;3.00;;;;;19.92;43.03;102122.81;4978204;28;45399;-45
2023/05/17 05:27:44;;;;;;;;;2.00;2.00;;;;;19.91;43.81;102122.84;4977181;28;45499;-51
2023/05/17 05:30:10;;;;;;;;;2.75;2.25;;;;;19.95;43.59;102123.63;4978084;28;46925;-49
2023/05/17 05:32:36;;;;;;;;;3.00;2.00;;;;;19.93;43.56;102121.91;4977950;28;45407;-44
2023/05/17 05:35:03;;;;;;;;;3.50;2.00;;;;;19.95;43.46;102127.13;4978451;28;45446;-44
2023/05/17 05:37:28;;;;;;;;;3.00;2.00;;;;;19.93;43.13;102128.94;4978162;28;45327;-53
2023/05/17 05:39:53;;;;;;;;;3.25;2.50;;;;;19.95;43.02;102137.66;4977258;28;63990;-52
2023/05/17 05:42:18;;;;;;;;;2.25;2.25;;;;;19.94;43.23;102138.56;4977548;28;52862;-57
2023/05/17 05:44:44;;;;;;;;;5.00;1.00;;;;;19.95;43.04;102140.28;4976761;28;50011;-56
2023/05/17 05:47:09;;;;;;;;;4.00;3.00;;;;;19.95;43.01;102140.28;4977551;28;45444;-56
2023/05/17 05:49:34;;;;;;;;;2.25;2.25;;;;;19.95;43.17;102136.81;4977918;28;46197;-56
2023/05/17 05:52:00;;;;;;;;;2.25;2.25;;;;;19.95;42.77;102145.53;4976695;28;45356;-56
2023/05/17 05:54:25;;;;;;;;;4.00;2.25;;;;;19.93;43.36;102148.22;4977576;28;45407;-56
2023/05/17 05:56:50;;;;;;;;;3.00;1.50;;;;;19.95;42.76;102148.16;4977732;28;45315;-53
2023/05/17 05:59:17;;;;;;;;;1.00;1.00;;;;;19.95;43.02;102156.06;4977456;28;47711;-55
2023/05/17 06:01:42;;;;;;;;;2.00;2.00;;;;;19.93;43.22;102164.03;4976837;28;60785;-45
2023/05/17 06:04:08;;;;;;;;;2.50;2.50;;;;;19.93;42.96;102160.50;4977796;28;45408;-48
2023/05/17 06:06:34;;;;;;;;;1.25;1.25;;;;;19.94;42.62;102159.59;4978119;28;45607;-47
2023/05/17 06:08:59;;;;;;;;;1.25;1.25;;;;;19.96;42.73;102167.44;4977340;28;47134;-44
2023/05/17 06:11:25;;;;;;;;;2.00;2.00;;;;;19.96;42.82;102168.31;4977281;28;45432;-49
2023/05/17 06:13:50;;;;;;;;;2.25;2.00;;;;;19.96;42.53;102170.06;4977322;28;45314;-45
2023/05/17 06:16:15;;;;;;;;;2.33;2.00;;;;;19.97;42.53;102170.03;4976718;28;58559;-44
2023/05/17 06:18:40;;;;;;;;;2.00;2.00;;;;;19.98;42.93;102170.88;4977155;28;46165;-45
2023/05/17 06:21:06;;;;;;;;;3.00;3.00;;;;;19.95;42.33;102174.50;4975574;28;66872;-45
2023/05/17 06:23:31;;;;;;;;;1.75;1.25;;;;;19.98;42.50;102184.03;4977379;28;45356;-53
2023/05/17 06:25:56;;;;;;;;;1.50;1.50;;;;;19.97;42.86;102185.84;4977387;28;45310;-51
2023/05/17 06:28:22;;;;;;;;;5.00;2.00;;;;;19.98;42.55;102187.56;4977341;28;45304;-57
2023/05/17 06:30:47;;;;;;;;;1.75;1.00;;;;;19.99;42.56;102191.91;4977267;28;45841;-57
2023/05/17 06:33:12;;;;;;;;;3.00;3.00;;;;;20.00;42.83;102192.75;4976552;28;53554;-55
2023/05/17 06:35:38;;;;;;;;;1.67;1.67;;;;;20.00;42.33;102188.38;4976736;28;51377;-49
2023/05/17 06:38:03;;;;;;;;;2.00;2.00;;;;;20.02;42.44;102188.31;4977148;28;46154;-56
2023/05/17 06:40:29;;;;;;;;;2.00;2.00;;;;;20.02;42.45;102186.53;4976946;28;45381;-52
2023/05/17 06:42:54;;;;;;;;;2.50;2.50;;;;;20.02;42.26;102189.16;4977094;28;45356;-57
2023/05/17 06:45:20;;;;;;;;;1.50;1.50;;;;;20.03;42.21;102190.03;4975978;28;45402;-55
2023/05/17 06:47:46;;;;;;;;;2.25;2.25;;;;;20.06;41.96;102189.94;4976978;28;45493;-54
2023/05/17 06:50:11;;;;;;;;;2.00;2.00;;;;;20.04;42.29;102189.97;4976978;28;45352;-53
2023/05/17 06:52:36;;;;;;;;;2.00;2.00;;;;;20.06;42.37;102192.59;4977215;28;45274;-50
2023/05/17 06:55:02;;;;;;;;;3.00;2.00;;;;;20.06;42.13;102189.94;4976021;28;45578;-51
2023/05/17 06:57:27;;;;;;;;;1.00;1.00;;;;;20.06;41.99;102198.69;4976627;28;46922;-49
2023/05/17 06:59:53;;;;;;;;;2.00;2.00;;;;;20.07;42.17;102197.78;4976541;28;52439;-48
2023/05/17 07:02:18;;;;;;;;;1.50;1.50;;;;;20.07;42.51;102192.53;4976720;28;45347;-53
2023/05/17 07:04:43;;;;;;;;;1.00;1.00;;;;;20.08;42.03;102199.50;4979731;28;45187;-56
2023/05/17 07:07:10;;;;;;;;;2.00;2.00;;;;;20.08;42.44;102203.91;4979189;28;45929;-54
2023/05/17 07:09:35;;;;;;;;;2.00;2.00;;;;;20.09;42.19;102200.34;4980653;28;45305;-45
2023/05/17 07:12:01;;;;;;;;;2.00;2.00;;;;;20.07;42.07;102210.94;4980243;28;45329;-46
2023/05/17 07:14:26;;;;;;;;;2.00;2.00;;;;;20.11;42.29;102210.84;4980442;28;45515;-57
2023/05/17 07:16:52;;;;;;;;;2.00;2.00;;;;;20.09;42.12;102205.63;4978672;28;47117;-47
2023/05/17 07:19:17;;;;;;;;;2.75;2.50;;;;;20.11;41.94;102218.75;4979994;28;45335;-50
2023/05/17 07:21:43;;;;;;;;;2.75;2.75;;;;;20.11;42.25;102219.59;4980164;28;45344;-47
2023/05/17 07:24:08;;;;;;;;;1.50;1.50;;;;;20.10;42.23;102222.28;4980621;28;45563;-45
2023/05/17 07:26:34;;;;;;;;;1.75;1.75;;;;;20.11;41.81;102218.75;4978622;28;46942;-46
2023/05/17 07:28:59;;;;;;;;;3.00;2.00;;;;;20.12;42.17;102221.31;4979933;28;45205;-48
2023/05/17 07:31:25;;;;;;;;;2.00;2.00;;;;;20.11;42.08;102213.50;4979990;28;45243;-46
2023/05/17 07:33:50;;;;;;;;;2.00;2.00;;;;;20.13;42.21;102219.53;4980151;28;45211;-53
2023/05/17 07:36:15;;;;;;;;;2.00;2.00;;;;;20.13;42.34;102224.81;4979698;28;45264;-57
2023/05/17 07:38:41;;;;;;;;;0.25;0.25;;;;;20.15;41.86;102223.00;4979543;28;55393;-55
2023/05/17 07:41:08;;;;;;;;;2.00;2.00;;;;;20.14;42.05;102230.03;4980053;28;45321;-55
2023/05/17 07:43:35;;;;;;;;;3.00;1.50;;;;;20.15;42.31;102225.63;4979836;28;45364;-57
2023/05/17 07:46:01;;;;;;;;;3.75;1.00;;;;;20.17;42.03;102229.06;4979655;28;46359;-56
2023/05/17 07:48:26;;;;;;;;;2.00;1.75;;;;;20.16;42.28;102220.34;4979661;28;45480;-53
2023/05/17 07:50:53;;;;;;;;;1.50;1.50;;;;;20.16;42.39;102222.09;4979518;28;47394;-48
2023/05/17 07:53:18;;;;;;;;;3.00;2.00;;;;;20.16;41.66;102227.34;4979727;28;45456;-48
2023/05/17 07:55:44;;;;;;;;;2.00;2.00;;;;;20.19;42.24;102224.63;4979529;28;45253;-46
2023/05/17 07:58:10;;;;;;;;;4.50;2.00;;;;;20.18;41.70;102217.63;4995046;28;46334;-49
2023/05/17 08:00:36;;;;;;;;;2.00;2.00;;;;;20.19;41.90;102222.00;4979794;28;45280;-47
2023/05/17 08:03:01;;;;;;;;;3.00;2.00;;;;;20.19;42.23;102224.63;4979822;28;45357;-56
2023/05/17 08:05:26;;;;;;;;;2.00;2.00;;;;;20.20;42.29;102223.72;4979247;28;46932;-46
2023/05/17 08:07:52;;;;;;;;;1.00;1.00;;;;;20.19;42.06;102225.47;4979374;28;45296;-48
2023/05/17 08:10:17;;;;;;;;;1.00;1.00;;;;;20.20;41.87;102234.25;4979481;28;45171;-49
2023/05/17 08:12:43;;;;;;;;;3.00;1.00;;;;;20.21;41.96;102228.94;4980100;28;45814;-49
2023/05/17 08:15:09;;;;;;;;;2.00;2.00;;;;;20.21;41.87;102236.81;4978641;28;45337;-56
2023/05/17 08:17:34;;;;;;;;;1.25;1.00;;;;;20.20;41.80;102227.19;4979217;28;45222;-57
2023/05/17 08:20:00;;;;;;;;;1.00;1.00;;;;;20.21;41.86;102230.72;4979226;28;45364;-49
2023/05/17 08:22:26;;;;;;;;;1.25;1.25;;;;;20.23;41.94;102228.88;4979194;28;45364;-50
2023/05/17 08:24:51;;;;;;;;;1.00;1.00;;;;;20.24;42.13;102231.47;4979075;28;47024;-50
2023/05/17 08:27:17;;;;;;;;;2.25;1.75;;;;;20.24;41.83;102230.59;4979345;28;45461;-53
2023/05/17 08:29:42;;;;;;;;;1.50;1.50;;;;;20.25;42.00;102232.31;4979463;28;45311;-49
2023/05/17 08:32:08;;;;;;;;;2.00;1.25;;;;;20.26;41.64;102234.03;4979258;28;45364;-49
2023/05/17 08:34:33;;;;;;;;;1.00;1.00;;;;;20.26;41.64;102228.78;4978563;28;58469;-56
